SMZO/ORG METAR and TAF weather

Enter ICAO airport designator
Station Type Date Time Source
SMZO METAR 2019/04/24 16:20 UTC NOAA

SMZO 241620Z 00000KT 0800 +TSRA SCT012CB BKN025 27/26 Q1012 BECMG AT1635 3000 TSRA


Station Type Date Time Source
SMZO Decoded METAR 2019/04/24 16:20 UTC NOAA

Station name not available
Apr 24, 2019 - 12:20 PM EDT / 2019.04.24 1620 UTC
Wind: Calm:0
Visibility: less than 1 mile:0
Sky conditions: mostly cloudy
Weather: heavy rain with thunder; Cumulonimbus clouds observed
Temperature: 80 F (27 C)
Dew Point: 78 F (26 C)
Relative Humidity: 94%
Pressure (altimeter): 29.88 in. Hg (1012 hPa)
ob: SMZO 241620Z 00000KT 0800 +TSRA SCT012CB BKN025 27/26 Q1012 BECMG AT1635 3000 TSRA
cycle: 16

Station Type Date Time Source
SMZO TAF 2019/04/24 18:09 UTC NOAA

TAF TAF SMZO 241600Z 2418/2518 08008KT 9999 SCT018 SCT025 TX30/2517Z TN24/2509Z
TEMPO 2418/2500 VRB10G22KT 3500 SHRA FEW015CB BKN020 PROB40
TEMPO 2418/2422 2000 +SHRA SCT015CB BKN020
BECMG 2512/2503 09003KT SCT010
TEMPO 2509/2518 5000 SHRA SCT010 FEW015CB SCT020

Example: see airport list